Time;durP1;ratioP1;P1;durP2;ratioP2;P2;SDS_P1;SDS_P2;PMS_P1;PMS_P2;Temp;Humidity;BMP_temperature;BMP_pressure;BME280_temperature;BME280_humidity;BME280_pressure;Samples;Min_cycle;Max_cycle;Signal;HPM_P1;HPM_P2
2022/06/30 00:00:39;;;;;;;0.75;0.50;;;21.00;65.00;;;;;;6215024;23;20004;-70
2022/06/30 00:03:05;;;;;;;1.23;0.40;;;21.00;65.10;;;;;;6214929;23;20345;-70
2022/06/30 00:05:31;;;;;;;0.90;0.60;;;21.00;65.40;;;;;;6188273;23;20003;-70
2022/06/30 00:07:56;;;;;;;1.38;0.40;;;21.00;65.30;;;;;;6214911;23;19996;-70
2022/06/30 00:10:22;;;;;;;1.00;0.47;;;21.00;65.40;;;;;;6214566;23;20345;-70
2022/06/30 00:12:48;;;;;;;0.88;0.60;;;21.00;65.50;;;;;;6215054;23;20007;-70
2022/06/30 00:15:13;;;;;;;0.82;0.50;;;21.00;65.50;;;;;;6188398;23;20001;-70
2022/06/30 00:17:39;;;;;;;1.23;0.47;;;21.00;65.50;;;;;;6214855;23;20024;-70
2022/06/30 00:20:05;;;;;;;0.73;0.50;;;21.00;65.60;;;;;;6214673;23;20345;-70
2022/06/30 00:22:31;;;;;;;0.73;0.50;;;20.90;65.60;;;;;;6214418;23;20078;-70
2022/06/30 00:24:56;;;;;;;0.80;0.50;;;20.90;65.60;;;;;;6214807;23;20000;-70
2022/06/30 00:27:22;;;;;;;1.17;0.70;;;20.90;65.60;;;;;;6214605;23;20341;-70
2022/06/30 00:29:48;;;;;;;0.55;0.40;;;20.90;65.60;;;;;;6214973;23;20321;-70
2022/06/30 00:32:13;;;;;;;1.00;0.60;;;20.90;65.60;;;;;;6214486;23;20001;-70
2022/06/30 00:34:39;;;;;;;0.50;0.50;;;20.90;65.60;;;;;;6214348;23;20054;-70
2022/06/30 00:37:05;;;;;;;0.93;0.45;;;20.90;65.70;;;;;;6187563;23;20475;-70
2022/06/30 00:39:30;;;;;;;2.35;0.50;;;20.90;65.70;;;;;;6187044;23;20015;-70
2022/06/30 00:41:56;;;;;;;0.77;0.50;;;20.90;65.70;;;;;;6213756;23;20376;-70
2022/06/30 00:44:22;;;;;;;0.85;0.50;;;20.90;65.80;;;;;;6186779;23;20046;-70
2022/06/30 00:46:48;;;;;;;1.02;0.50;;;20.90;65.80;;;;;;6187117;23;20060;-70
2022/06/30 00:49:14;;;;;;;0.65;0.38;;;20.90;65.80;;;;;;6186619;23;20050;-70
2022/06/30 00:51:39;;;;;;;1.42;0.52;;;20.90;65.80;;;;;;6213412;23;20425;-70
2022/06/30 00:54:06;;;;;;;1.20;0.45;;;20.80;65.80;;;;;;6213536;23;20000;-70
2022/06/30 00:56:32;;;;;;;1.00;0.50;;;20.80;65.90;;;;;;6162102;23;20016;-70
2022/06/30 00:59:02;;;;;;;1.67;0.60;;;20.80;65.80;;;;;;6186998;23;20008;-70
2022/06/30 01:01:29;;;;;;;1.10;0.68;;;20.80;65.90;;;;;;6187004;23;20005;-70
2022/06/30 01:03:58;;;;;;;0.47;0.47;;;20.80;65.80;;;;;;6212967;23;20445;-70
2022/06/30 01:06:23;;;;;;;0.50;0.50;;;20.80;65.80;;;;;;6161896;23;20000;-70
2022/06/30 01:08:49;;;;;;;0.77;0.50;;;20.80;66.00;;;;;;6163162;23;20460;-70
2022/06/30 01:14:00;;;;;;;1.17;0.50;;;20.80;66.00;;;;;;6214708;23;20043;-70
2022/06/30 01:16:26;;;;;;;1.02;0.63;;;20.80;66.00;;;;;;6163234;23;20340;-70
2022/06/30 01:18:52;;;;;;;1.45;0.52;;;20.80;66.00;;;;;;6214183;23;20032;-70
2022/06/30 01:21:17;;;;;;;0.70;0.50;;;20.80;66.00;;;;;;6214381;23;20005;-70
2022/06/30 01:23:43;;;;;;;1.38;0.93;;;20.80;66.10;;;;;;6214415;23;20307;-70
2022/06/30 01:26:08;;;;;;;0.90;0.47;;;20.80;66.10;;;;;;6188043;23;20001;-70
2022/06/30 01:28:34;;;;;;;1.08;0.50;;;20.70;66.00;;;;;;6187845;23;20011;-70
2022/06/30 01:31:00;;;;;;;1.20;0.50;;;20.70;66.00;;;;;;6214579;23;20012;-71
2022/06/30 01:33:25;;;;;;;0.68;0.47;;;20.70;66.10;;;;;;6214121;23;20011;-71
2022/06/30 01:35:51;;;;;;;0.80;0.38;;;20.70;66.10;;;;;;6214392;23;20009;-71
2022/06/30 01:38:19;;;;;;;0.85;0.65;;;20.70;66.10;;;;;;6165445;23;1176957;-70
2022/06/30 01:40:45;;;;;;;0.73;0.50;;;20.70;66.10;;;;;;6216473;23;20080;-70
2022/06/30 01:43:12;;;;;;;1.02;0.55;;;20.70;66.10;;;;;;6189815;23;20033;-70
2022/06/30 01:45:39;;;;;;;0.65;0.43;;;20.70;66.20;;;;;;6216194;23;20054;-70
2022/06/30 01:48:04;;;;;;;2.42;0.95;;;20.70;66.30;;;;;;6216346;23;20005;-71
2022/06/30 01:50:30;;;;;;;1.20;0.60;;;20.70;66.30;;;;;;6190009;23;20028;-71
2022/06/30 01:52:56;;;;;;;0.65;0.60;;;20.70;66.30;;;;;;6189601;23;20016;-71
2022/06/30 01:55:22;;;;;;;1.08;0.57;;;20.70;66.30;;;;;;6189765;23;20004;-71
2022/06/30 01:57:48;;;;;;;1.88;0.60;;;20.70;66.30;;;;;;6189774;23;20005;-71
2022/06/30 02:00:16;;;;;;;1.02;0.50;;;20.70;66.30;;;;;;6216090;23;20462;-71
2022/06/30 02:02:42;;;;;;;1.55;0.50;;;20.70;66.30;;;;;;6215924;23;20051;-71
2022/06/30 02:05:08;;;;;;;0.52;0.52;;;20.70;66.30;;;;;;6164672;23;20076;-70
2022/06/30 02:07:36;;;;;;;1.02;0.38;;;20.70;66.30;;;;;;6189517;23;20079;-71
2022/06/30 02:10:16;;;;;;;1.02;0.55;;;20.70;66.30;;;;;;6190341;23;20403;-71
2022/06/30 02:12:47;;;;;;;0.77;0.30;;;20.70;66.30;;;;;;6191814;23;20337;-71
2022/06/30 02:15:23;;;;;;;7.03;0.60;;;20.70;66.30;;;;;;6190725;23;20005;-71
2022/06/30 02:17:51;;;;;;;1.75;0.57;;;20.70;66.30;;;;;;6189043;23;20381;-71
2022/06/30 02:20:21;;;;;;;0.73;0.40;;;20.70;66.50;;;;;;6189714;23;20011;-71
2022/06/30 02:22:47;;;;;;;2.72;0.60;;;20.70;66.40;;;;;;6216111;23;20001;-71
2022/06/30 02:25:12;;;;;;;1.00;0.60;;;20.70;66.50;;;;;;6189509;23;20440;-71
2022/06/30 02:27:38;;;;;;;3.03;0.47;;;20.70;66.50;;;;;;6164568;23;20424;-71
2022/06/30 02:30:06;;;;;;;0.68;0.40;;;20.60;66.40;;;;;;6215515;23;20123;-71
2022/06/30 02:32:31;;;;;;;1.02;0.43;;;20.70;66.50;;;;;;6189571;23;20475;-70
2022/06/30 02:34:57;;;;;;;0.40;0.35;;;20.70;66.50;;;;;;6189247;23;20004;-70
2022/06/30 02:37:23;;;;;;;0.55;0.40;;;20.60;66.40;;;;;;6189019;23;20015;-70
2022/06/30 02:39:48;;;;;;;0.65;0.50;;;20.60;66.50;;;;;;6189006;23;20012;-70
2022/06/30 02:42:14;;;;;;;0.80;0.50;;;20.60;66.50;;;;;;6215781;23;20001;-70
2022/06/30 02:44:40;;;;;;;2.70;0.70;;;20.60;66.50;;;;;;6188991;23;20416;-70
2022/06/30 02:47:05;;;;;;;1.85;0.70;;;20.60;66.50;;;;;;6215613;23;20068;-70
2022/06/30 02:49:31;;;;;;;0.50;0.40;;;20.60;66.50;;;;;;6215420;23;20019;-70
2022/06/30 02:51:56;;;;;;;1.38;0.50;;;20.60;66.50;;;;;;6189238;23;20468;-70
2022/06/30 02:54:22;;;;;;;1.92;0.70;;;20.60;66.50;;;;;;6215510;23;20004;-70
2022/06/30 02:56:49;;;;;;;1.63;0.43;;;20.60;66.50;;;;;;6215730;23;20011;-70
2022/06/30 02:59:14;;;;;;;0.80;0.40;;;20.60;66.60;;;;;;6188785;23;20009;-70
2022/06/30 03:01:40;;;;;;;1.10;0.40;;;20.60;66.60;;;;;;6188966;23;20384;-70
2022/06/30 03:04:06;;;;;;;0.60;0.47;;;20.50;66.50;;;;;;6164297;23;20437;-70
2022/06/30 03:06:32;;;;;;;2.00;0.45;;;20.50;66.50;;;;;;6215267;23;20024;-70
2022/06/30 03:08:58;;;;;;;0.80;0.50;;;20.50;66.50;;;;;;6164316;23;20074;-70
2022/06/30 03:11:23;;;;;;;1.75;0.65;;;20.50;66.50;;;;;;6188799;23;20015;-70
2022/06/30 03:13:49;;;;;;;0.40;0.40;;;20.50;66.50;;;;;;6215073;23;20004;-70
2022/06/30 03:16:15;;;;;;;1.05;0.50;;;20.50;66.50;;;;;;6188811;23;20456;-70
2022/06/30 03:18:40;;;;;;;0.65;0.40;;;20.50;66.50;;;;;;6215261;23;20076;-70
2022/06/30 03:21:07;;;;;;;1.83;0.57;;;20.50;67.10;;;;;;6215319;23;20384;-70
2022/06/30 03:23:32;;;;;;;0.40;0.35;;;20.50;66.50;;;;;;6215185;23;19996;-70
2022/06/30 03:25:58;;;;;;;0.82;0.32;;;20.50;66.60;;;;;;6188678;23;20326;-70
2022/06/30 03:28:23;;;;;;;0.50;0.30;;;20.50;66.50;;;;;;6215090;23;20007;-70
2022/06/30 03:30:49;;;;;;;0.43;0.38;;;20.50;66.60;;;;;;6188474;23;20008;-70
2022/06/30 03:33:15;;;;;;;1.15;0.30;;;20.40;66.70;;;;;;6188726;23;20000;-70
2022/06/30 03:35:41;;;;;;;0.45;0.35;;;20.50;66.60;;;;;;6188541;23;20004;-70
2022/06/30 03:38:06;;;;;;;1.00;0.50;;;20.50;66.70;;;;;;6188597;23;20086;-70
2022/06/30 03:40:32;;;;;;;2.08;0.50;;;20.50;66.80;;;;;;6215047;23;20004;-70
2022/06/30 03:42:58;;;;;;;1.60;0.50;;;20.50;66.80;;;;;;6163550;23;19997;-70
2022/06/30 03:45:24;;;;;;;0.40;0.40;;;20.50;66.80;;;;;;6215107;23;20051;-70
2022/06/30 03:47:49;;;;;;;0.73;0.40;;;20.40;66.80;;;;;;6188413;23;20001;-70
2022/06/30 03:50:15;;;;;;;0.82;0.60;;;20.50;66.90;;;;;;6215035;23;20001;-70
2022/06/30 03:52:40;;;;;;;0.88;0.32;;;20.40;66.80;;;;;;6215084;23;20004;-70
2022/06/30 03:55:06;;;;;;;2.15;0.60;;;20.50;66.90;;;;;;6214995;23;20057;-70
2022/06/30 03:57:32;;;;;;;0.43;0.35;;;20.50;66.90;;;;;;6214917;23;20005;-70
2022/06/30 03:59:57;;;;;;;1.00;0.43;;;20.40;66.80;;;;;;6214755;23;20001;-70
2022/06/30 04:02:23;;;;;;;0.28;0.28;;;20.40;66.90;;;;;;6214808;23;20070;-70
2022/06/30 04:04:49;;;;;;;1.10;0.60;;;20.40;66.90;;;;;;6214803;23;20376;-70
2022/06/30 04:07:14;;;;;;;0.35;0.35;;;20.40;66.90;;;;;;6214829;23;20384;-70
2022/06/30 04:09:40;;;;;;;0.60;0.60;;;20.40;66.90;;;;;;6215001;23;20012;-70
2022/06/30 04:12:06;;;;;;;0.52;0.40;;;20.40;66.90;;;;;;6214641;23;20004;-70
2022/06/30 04:14:31;;;;;;;0.52;0.50;;;20.40;66.90;;;;;;6214665;23;20015;-70
2022/06/30 04:16:57;;;;;;;2.65;0.50;;;20.40;66.80;;;;;;6214752;23;20438;-70
2022/06/30 04:19:23;;;;;;;0.82;0.50;;;20.40;66.90;;;;;;6188438;23;20001;-70
2022/06/30 04:21:49;;;;;;;0.68;0.40;;;20.40;67.00;;;;;;6214679;23;20431;-70
2022/06/30 04:24:15;;;;;;;1.13;0.95;;;20.40;66.90;;;;;;6214611;23;20457;-70
2022/06/30 04:26:40;;;;;;;1.02;0.47;;;20.40;67.00;;;;;;6214464;23;19997;-70
2022/06/30 04:29:06;;;;;;;1.17;0.38;;;20.40;67.10;;;;;;6214750;23;20008;-70
2022/06/30 04:34:15;;;;;;;3.13;0.60;;;20.40;67.10;;;;;;6213658;23;20015;-70
2022/06/30 04:36:41;;;;;;;0.40;0.38;;;20.40;67.10;;;;;;6213181;23;20454;-70
2022/06/30 04:39:07;;;;;;;2.33;0.50;;;20.40;67.10;;;;;;6186320;23;20005;-70
2022/06/30 04:41:32;;;;;;;1.88;0.50;;;20.40;67.20;;;;;;6186054;23;19997;-70
2022/06/30 04:43:59;;;;;;;0.98;0.40;;;20.40;67.30;;;;;;6213349;23;20000;-70
2022/06/30 04:46:24;;;;;;;0.57;0.40;;;20.40;67.20;;;;;;6186767;23;20005;-70
2022/06/30 04:48:50;;;;;;;1.05;0.40;;;20.40;67.30;;;;;;6213239;23;20099;-70
2022/06/30 04:51:16;;;;;;;0.50;0.50;;;20.40;67.30;;;;;;6214232;23;20008;-70
2022/06/30 04:53:42;;;;;;;0.98;0.30;;;20.40;67.30;;;;;;6188130;23;20001;-70
2022/06/30 04:56:08;;;;;;;0.28;0.28;;;20.30;67.30;;;;;;6214798;23;20008;-70
2022/06/30 04:58:34;;;;;;;0.52;0.40;;;20.40;67.30;;;;;;6163207;23;20008;-70
2022/06/30 05:01:00;;;;;;;0.95;0.40;;;20.40;67.30;;;;;;6214512;23;20008;-70
2022/06/30 05:03:26;;;;;;;1.65;0.50;;;20.30;67.30;;;;;;6188488;23;19997;-70
2022/06/30 05:05:53;;;;;;;0.65;0.50;;;20.30;67.30;;;;;;6215257;23;20095;-70
2022/06/30 05:08:19;;;;;;;1.13;0.30;;;20.30;67.30;;;;;;6215146;23;20027;-70
2022/06/30 05:10:44;;;;;;;0.68;0.43;;;20.30;67.30;;;;;;6163908;23;20001;-70
2022/06/30 05:13:10;;;;;;;2.47;0.50;;;20.30;67.40;;;;;;6214947;23;20004;-70
2022/06/30 05:15:35;;;;;;;1.58;0.50;;;20.30;65.60;;;;;;6214016;23;20507;-70
2022/06/30 05:18:01;;;;;;;0.73;0.50;;;20.20;65.20;;;;;;6188100;23;20080;-70
2022/06/30 05:20:27;;;;;;;3.00;0.60;;;20.20;64.80;;;;;;6188102;23;20000;-70
2022/06/30 05:22:52;;;;;;;0.60;0.40;;;20.10;64.50;;;;;;6214487;23;19997;-70
2022/06/30 05:28:03;;;;;;;1.30;0.50;;;20.10;63.70;;;;;;6192180;23;20092;-70
2022/06/30 05:30:28;;;;;;;0.95;0.45;;;20.00;63.50;;;;;;6188240;23;20028;-70
2022/06/30 05:32:54;;;;;;;1.08;0.40;;;20.10;63.40;;;;;;6214449;23;20044;-70
2022/06/30 05:35:20;;;;;;;0.73;0.40;;;20.00;63.20;;;;;;6163227;23;20008;-70
2022/06/30 05:37:45;;;;;;;1.40;0.52;;;20.00;63.00;;;;;;6187916;23;20320;-70
2022/06/30 05:40:11;;;;;;;1.55;0.50;;;20.00;62.90;;;;;;6187646;23;20047;-70
2022/06/30 05:42:37;;;;;;;2.58;0.73;;;20.00;62.70;;;;;;6187379;23;19996;-70
2022/06/30 05:45:04;;;;;;;4.35;1.27;;;19.90;62.60;;;;;;6186358;23;19996;-70
2022/06/30 05:47:29;;;;;;;1.42;0.40;;;19.90;62.60;;;;;;6211355;23;20087;-70
2022/06/30 05:49:55;;;;;;;1.67;0.90;;;19.90;62.50;;;;;;6186046;23;20047;-70
2022/06/30 05:52:20;;;;;;;2.85;0.60;;;19.90;62.50;;;;;;6185747;23;20001;-70
2022/06/30 05:54:46;;;;;;;1.23;0.50;;;19.90;62.20;;;;;;6187569;23;20001;-70
2022/06/30 05:57:12;;;;;;;3.47;0.80;;;19.90;62.10;;;;;;6214470;23;20190;-70
2022/06/30 05:59:37;;;;;;;2.47;0.52;;;19.80;62.10;;;;;;6215894;23;20027;-70
2022/06/30 06:02:03;;;;;;;1.80;0.60;;;19.80;62.10;;;;;;6216195;23;20425;-70
2022/06/30 06:04:29;;;;;;;2.28;0.65;;;19.80;62.00;;;;;;6215177;23;20006;-70
2022/06/30 06:06:55;;;;;;;2.05;0.32;;;19.80;62.00;;;;;;6215388;23;20001;-70
2022/06/30 06:09:21;;;;;;;1.83;0.50;;;19.80;62.10;;;;;;6216043;23;20071;-70
2022/06/30 06:11:47;;;;;;;1.45;0.40;;;19.80;62.10;;;;;;6164663;23;20012;-70
2022/06/30 06:14:13;;;;;;;3.72;0.52;;;19.70;62.00;;;;;;6164841;23;20000;-70
2022/06/30 06:16:38;;;;;;;1.65;0.50;;;19.70;62.00;;;;;;6189805;23;20028;-70
2022/06/30 06:19:04;;;;;;;3.03;0.60;;;19.70;62.00;;;;;;6189434;23;20318;-70
2022/06/30 06:21:30;;;;;;;2.53;0.90;;;19.70;62.10;;;;;;6189626;23;20000;-70
2022/06/30 06:23:55;;;;;;;1.52;0.93;;;19.70;62.20;;;;;;6164545;23;20004;-70
2022/06/30 06:26:21;;;;;;;1.38;0.50;;;19.70;62.40;;;;;;6216021;23;20000;-70
2022/06/30 06:31:31;;;;;;;1.48;0.68;;;19.70;62.70;;;;;;6216029;23;20399;-70
2022/06/30 06:33:57;;;;;;;1.67;0.60;;;19.60;62.60;;;;;;6189249;23;20028;-70
2022/06/30 06:36:23;;;;;;;2.45;0.63;;;19.60;62.70;;;;;;6189040;23;20055;-70
2022/06/30 06:38:48;;;;;;;2.90;0.77;;;19.60;62.80;;;;;;6188583;23;20005;-70
2022/06/30 06:41:15;;;;;;;3.15;0.55;;;19.60;62.80;;;;;;6215775;23;20468;-70
2022/06/30 06:43:41;;;;;;;1.98;0.70;;;19.60;62.90;;;;;;6189440;23;19996;-70
2022/06/30 06:46:06;;;;;;;1.23;0.52;;;19.60;62.90;;;;;;6189199;23;20004;-70
2022/06/30 06:48:32;;;;;;;4.45;0.60;;;19.60;62.90;;;;;;6215743;23;20314;-70
2022/06/30 06:50:58;;;;;;;2.55;0.50;;;19.60;62.90;;;;;;6215380;23;20001;-70
2022/06/30 06:53:24;;;;;;;0.82;0.40;;;19.50;62.90;;;;;;6189224;23;20004;-70
2022/06/30 06:55:49;;;;;;;1.70;0.43;;;19.50;62.90;;;;;;6215522;23;20020;-70
2022/06/30 06:58:15;;;;;;;1.63;0.57;;;19.50;62.90;;;;;;6189116;23;20007;-70
2022/06/30 07:00:40;;;;;;;3.80;0.57;;;19.50;62.90;;;;;;6215697;23;20001;-70
2022/06/30 07:03:06;;;;;;;2.45;0.60;;;19.50;63.10;;;;;;6215642;23;20005;-70
2022/06/30 07:05:32;;;;;;;3.78;0.65;;;19.50;63.10;;;;;;6214553;23;20028;-70
2022/06/30 07:08:01;;;;;;;1.50;0.52;;;19.40;62.90;;;;;;6189068;23;20072;-70
2022/06/30 07:10:27;;;;;;;2.30;0.60;;;19.50;63.10;;;;;;6215532;23;20345;-70
2022/06/30 07:12:53;;;;;;;1.40;0.57;;;19.50;63.00;;;;;;6215405;23;20005;-70
2022/06/30 07:15:19;;;;;;;2.67;0.75;;;19.40;62.90;;;;;;6215381;23;20507;-70
2022/06/30 07:17:44;;;;;;;2.75;0.60;;;19.30;62.70;;;;;;6164324;23;20032;-69
2022/06/30 07:20:10;;;;;;;1.58;0.77;;;19.40;62.80;;;;;;6215157;23;20024;-69
2022/06/30 07:22:36;;;;;;;3.65;0.88;;;19.30;62.70;;;;;;6215567;23;20000;-69
2022/06/30 07:25:02;;;;;;;1.98;0.75;;;19.30;62.60;;;;;;6215285;23;20465;-69
2022/06/30 07:27:28;;;;;;;3.58;0.40;;;19.30;62.70;;;;;;6215542;23;20078;-69
2022/06/30 07:29:53;;;;;;;2.83;0.80;;;19.30;62.60;;;;;;6163999;23;20012;-70
2022/06/30 07:32:19;;;;;;;2.65;0.90;;;19.30;62.80;;;;;;6188868;23;20167;-70
2022/06/30 07:34:45;;;;;;;1.98;0.70;;;19.40;62.80;;;;;;6215067;23;20024;-70
2022/06/30 07:37:10;;;;;;;3.85;0.90;;;19.30;63.70;;;;;;6188365;23;20020;-69
2022/06/30 07:39:36;;;;;;;2.13;0.60;;;19.30;62.70;;;;;;6163985;23;20032;-69
2022/06/30 07:42:02;;;;;;;1.27;0.60;;;19.30;62.70;;;;;;6215244;23;20457;-69
2022/06/30 07:44:27;;;;;;;2.25;0.70;;;19.20;62.50;;;;;;6215243;23;20001;-69
2022/06/30 07:46:53;;;;;;;2.72;0.70;;;19.20;62.40;;;;;;6214934;23;19997;-69
2022/06/30 07:49:18;;;;;;;2.28;0.50;;;19.20;62.60;;;;;;6188634;23;20000;-69
2022/06/30 07:51:44;;;;;;;2.15;0.63;;;19.20;62.40;;;;;;6215061;23;20508;-69
2022/06/30 07:54:10;;;;;;;2.33;0.57;;;19.10;62.30;;;;;;6215094;23;20012;-69
2022/06/30 07:56:35;;;;;;;1.88;0.70;;;19.10;62.20;;;;;;6188722;23;20005;-69
2022/06/30 07:59:01;;;;;;;4.03;0.80;;;19.10;62.30;;;;;;6188287;23;20027;-69
2022/06/30 08:01:27;;;;;;;2.40;0.50;;;19.10;63.50;;;;;;6163833;23;20482;-69
2022/06/30 08:03:52;;;;;;;2.25;0.60;;;19.10;62.50;;;;;;6188049;23;20005;-69
2022/06/30 08:06:18;;;;;;;2.55;1.00;;;19.10;62.50;;;;;;6215047;23;20072;-69
2022/06/30 08:08:44;;;;;;;2.05;0.60;;;19.10;62.40;;;;;;6215292;23;20027;-69
2022/06/30 08:11:10;;;;;;;3.17;0.80;;;19.10;62.30;;;;;;6214745;23;20031;-69
2022/06/30 08:13:35;;;;;;;2.58;0.80;;;19.10;62.30;;;;;;6188424;23;20004;-69
2022/06/30 08:16:02;;;;;;;2.35;0.80;;;19.10;62.30;;;;;;6163509;23;20080;-69
2022/06/30 08:18:27;;;;;;;3.20;0.80;;;19.10;62.40;;;;;;6188300;23;20425;-69
2022/06/30 08:20:53;;;;;;;2.15;0.70;;;19.10;62.30;;;;;;6214868;23;20023;-69
2022/06/30 08:23:18;;;;;;;4.70;0.77;;;19.10;62.50;;;;;;6214923;23;20024;-69
2022/06/30 08:25:44;;;;;;;1.92;0.55;;;19.10;62.30;;;;;;6214788;23;19996;-69
2022/06/30 08:28:10;;;;;;;1.52;0.85;;;19.10;62.30;;;;;;6214846;23;20007;-69
2022/06/30 08:30:35;;;;;;;1.73;0.60;;;19.10;62.30;;;;;;6214799;23;20007;-69
2022/06/30 08:33:01;;;;;;;1.95;0.68;;;19.10;61.80;;;;;;6214451;23;20004;-69
2022/06/30 08:35:27;;;;;;;2.58;0.68;;;19.00;62.00;;;;;;6188341;23;20068;-69
2022/06/30 08:37:53;;;;;;;4.50;1.00;;;19.10;62.20;;;;;;6188047;23;20083;-69
2022/06/30 08:43:03;;;;;;;2.05;0.60;;;19.10;62.10;;;;;;6171231;23;20031;-69
2022/06/30 08:45:29;;;;;;;2.97;0.75;;;19.10;62.20;;;;;;6188384;23;20410;-69
2022/06/30 08:47:55;;;;;;;2.42;0.63;;;19.10;62.20;;;;;;6163244;23;20042;-69
2022/06/30 08:50:20;;;;;;;1.73;0.60;;;19.10;62.20;;;;;;6188182;23;20000;-69
2022/06/30 08:52:47;;;;;;;2.17;0.70;;;19.10;62.40;;;;;;6188387;23;20001;-69
2022/06/30 08:55:16;;;;;;;1.02;0.50;;;19.10;62.20;;;;;;6214454;23;20004;-69
2022/06/30 08:57:44;;;;;;;2.70;0.50;;;19.10;61.90;;;;;;6214585;23;20000;-69
2022/06/30 09:00:11;;;;;;;3.28;1.00;;;19.00;61.60;;;;;;6214484;23;20389;-69
2022/06/30 09:02:36;;;;;;;2.47;0.60;;;18.90;62.20;;;;;;6187979;23;20015;-69
2022/06/30 09:05:02;;;;;;;2.53;0.60;;;18.80;62.70;;;;;;6188059;23;20001;-69
2022/06/30 09:07:28;;;;;;;1.80;0.80;;;18.80;62.80;;;;;;6188261;23;19996;-69
2022/06/30 09:09:54;;;;;;;3.15;0.95;;;18.90;62.90;;;;;;6214402;23;20004;-69
2022/06/30 09:12:20;;;;;;;1.00;0.40;;;18.90;62.70;;;;;;6214544;23;20005;-69
2022/06/30 09:14:46;;;;;;;3.30;0.70;;;18.90;62.70;;;;;;6214701;23;20079;-69
2022/06/30 09:17:14;;;;;;;1.98;0.52;;;19.00;63.00;;;;;;6214022;23;20005;-69
2022/06/30 09:20:02;;;;;;;2.13;0.60;;;19.00;64.10;;;;;;6163546;23;20011;-69
2022/06/30 09:22:41;;;;;;;3.03;0.60;;;19.10;63.20;;;;;;6214826;23;20000;-69
2022/06/30 09:25:11;;;;;;;2.10;0.50;;;19.00;63.20;;;;;;6188143;23;20016;-69
2022/06/30 09:27:38;;;;;;;3.35;0.60;;;19.00;63.20;;;;;;6188412;23;20001;-69
2022/06/30 09:30:09;;;;;;;2.05;0.70;;;19.00;63.50;;;;;;6165074;23;20032;-69
2022/06/30 09:32:54;;;;;;;3.47;0.57;;;19.10;63.60;;;;;;6190808;23;20008;-69
2022/06/30 09:35:21;;;;;;;2.15;0.70;;;19.10;63.50;;;;;;6189639;23;20483;-70
2022/06/30 09:38:07;;;;;;;2.17;0.45;;;19.10;63.70;;;;;;6165102;23;20004;-70
2022/06/30 09:43:35;;;;;;;2.20;0.60;;;19.10;63.70;;;;;;6194057;23;20012;-70
2022/06/30 09:46:01;;;;;;;2.20;0.60;;;19.00;63.70;;;;;;6189569;23;20005;-70
2022/06/30 09:48:28;;;;;;;1.75;0.88;;;19.10;63.70;;;;;;6216267;23;20330;-70
2022/06/30 09:51:01;;;;;;;2.05;0.60;;;19.10;63.90;;;;;;6190090;23;20079;-70
2022/06/30 09:53:26;;;;;;;1.38;0.50;;;19.10;63.90;;;;;;6165812;23;20425;-70
2022/06/30 09:55:52;;;;;;;2.70;0.57;;;19.10;64.00;;;;;;6216023;23;20028;-70
2022/06/30 09:58:30;;;;;;;2.58;0.60;;;19.10;64.00;;;;;;6189425;23;20067;-70
2022/06/30 10:00:56;;;;;;;1.55;0.63;;;19.10;64.10;;;;;;6215974;23;20080;-70
2022/06/30 10:03:22;;;;;;;1.88;0.50;;;19.10;64.00;;;;;;6189764;23;20023;-70
2022/06/30 10:05:49;;;;;;;1.95;0.60;;;19.10;64.20;;;;;;6215971;23;20001;-70
2022/06/30 10:08:15;;;;;;;1.25;0.52;;;19.10;64.10;;;;;;6215838;23;20001;-70
2022/06/30 10:10:41;;;;;;;0.88;0.40;;;19.10;65.20;;;;;;6216108;23;20001;-70
2022/06/30 10:13:13;;;;;;;2.15;0.60;;;19.10;64.10;;;;;;6189619;23;20001;-70
2022/06/30 10:15:38;;;;;;;1.08;0.45;;;19.10;64.20;;;;;;6165408;23;20341;-70
2022/06/30 10:18:04;;;;;;;1.42;0.50;;;19.10;64.20;;;;;;6216132;23;20526;-70
2022/06/30 10:20:33;;;;;;;1.30;0.40;;;19.10;64.30;;;;;;6164342;23;20009;-70
2022/06/30 10:22:58;;;;;;;1.42;0.60;;;19.10;64.20;;;;;;6190137;23;20001;-70
2022/06/30 10:25:24;;;;;;;1.45;0.60;;;19.10;64.20;;;;;;6189514;23;20482;-70
2022/06/30 10:27:50;;;;;;;1.42;0.40;;;19.10;64.40;;;;;;6164366;23;20000;-70
2022/06/30 10:30:17;;;;;;;0.88;0.50;;;19.10;64.40;;;;;;6189315;23;20005;-70
2022/06/30 10:32:51;;;;;;;3.65;0.70;;;19.10;64.40;;;;;;6189275;23;20011;-70
2022/06/30 10:35:42;;;;;;;2.28;0.60;;;19.10;64.20;;;;;;6215718;23;20000;-70
2022/06/30 10:38:23;;;;;;;2.47;0.65;;;19.10;64.20;;;;;;6215494;23;20500;-70
2022/06/30 10:40:56;;;;;;;3.15;0.82;;;19.00;62.70;;;;;;6189248;23;20009;-70
2022/06/30 10:43:21;;;;;;;3.08;0.55;;;18.90;63.20;;;;;;6188643;23;20024;-70
2022/06/30 10:45:55;;;;;;;1.60;0.40;;;18.90;63.20;;;;;;6215705;23;20008;-70
2022/06/30 10:48:21;;;;;;;2.08;0.50;;;18.80;63.00;;;;;;6189217;23;20072;-70
2022/06/30 10:50:47;;;;;;;4.32;0.50;;;18.80;63.10;;;;;;6189548;23;20152;-70
2022/06/30 10:53:37;;;;;;;1.88;0.77;;;18.70;63.10;;;;;;6215418;23;20008;-70
2022/06/30 10:56:03;;;;;;;1.25;0.50;;;18.80;63.20;;;;;;6173139;23;20147;-70
2022/06/30 10:58:28;;;;;;;0.22;0.20;;;18.80;63.00;;;;;;6188623;23;20449;-70
2022/06/30 11:01:03;;;;;;;1.70;0.50;;;18.90;63.00;;;;;;6189269;23;20127;-70
2022/06/30 11:03:34;;;;;;;1.40;0.30;;;18.90;63.10;;;;;;6215529;23;20425;-70
2022/06/30 11:06:07;;;;;;;1.13;0.40;;;18.90;63.20;;;;;;6215681;23;20028;-70
2022/06/30 11:08:39;;;;;;;0.70;0.40;;;18.90;63.20;;;;;;6215377;23;20007;-70
2022/06/30 11:11:22;;;;;;;1.07;0.40;;;18.80;63.00;;;;;;6215539;23;20008;-70
2022/06/30 11:14:13;;;;;;;2.00;0.38;;;18.90;63.10;;;;;;6215385;23;20001;-70
2022/06/30 11:16:39;;;;;;;0.95;0.50;;;18.90;63.30;;;;;;6174908;23;20005;-70
2022/06/30 11:19:13;;;;;;;0.57;0.28;;;18.90;63.30;;;;;;6188800;23;20011;-70
2022/06/30 11:21:42;;;;;;;0.68;0.32;;;18.90;63.50;;;;;;6165723;23;20031;-70
2022/06/30 11:24:08;;;;;;;2.65;0.45;;;18.90;63.70;;;;;;6188769;23;20008;-70
2022/06/30 11:29:18;;;;;;;0.85;0.30;;;18.90;63.90;;;;;;6171899;23;20572;-70
2022/06/30 11:31:44;;;;;;;1.15;0.40;;;18.90;64.00;;;;;;6189110;23;20039;-70
2022/06/30 11:34:15;;;;;;;0.57;0.40;;;18.90;63.90;;;;;;6215319;23;20049;-70
2022/06/30 11:36:43;;;;;;;0.98;0.30;;;18.90;63.80;;;;;;6164566;23;20008;-70
2022/06/30 11:39:20;;;;;;;1.33;0.55;;;18.90;63.90;;;;;;6189072;23;20083;-70
2022/06/30 11:41:56;;;;;;;1.10;0.35;;;18.90;63.90;;;;;;6190168;23;19997;-70
2022/06/30 11:44:26;;;;;;;0.52;0.20;;;19.00;64.10;;;;;;6190451;23;20000;-70
2022/06/30 11:46:52;;;;;;;0.93;0.43;;;18.90;63.70;;;;;;6164226;23;20032;-70
2022/06/30 11:49:18;;;;;;;1.65;0.60;;;18.90;63.70;;;;;;6215115;23;20007;-70
2022/06/30 11:51:43;;;;;;;0.98;0.43;;;18.90;63.70;;;;;;6188352;23;20028;-70
2022/06/30 11:54:10;;;;;;;2.70;0.50;;;18.90;63.70;;;;;;6215120;23;20417;-70
2022/06/30 11:56:46;;;;;;;1.45;0.40;;;18.90;63.70;;;;;;6188431;23;20007;-70
2022/06/30 11:59:12;;;;;;;1.27;0.50;;;18.90;63.80;;;;;;6214907;23;20004;-70
2022/06/30 12:01:37;;;;;;;0.88;0.30;;;18.90;63.70;;;;;;6214985;23;20008;-70
2022/06/30 12:04:17;;;;;;;1.08;0.38;;;18.90;63.70;;;;;;6215087;23;20011;-70
2022/06/30 12:06:42;;;;;;;1.05;0.35;;;18.90;63.80;;;;;;6164079;23;19997;-69
2022/06/30 12:09:09;;;;;;;0.98;0.20;;;18.90;63.90;;;;;;6214770;23;20011;-69
2022/06/30 12:11:35;;;;;;;1.17;0.32;;;18.90;64.00;;;;;;6214674;23;20044;-69
2022/06/30 12:14:01;;;;;;;2.20;0.40;;;18.90;64.30;;;;;;6188373;23;20429;-69
2022/06/30 12:16:27;;;;;;;0.85;0.43;;;18.90;64.60;;;;;;6214753;23;20011;-69
2022/06/30 12:18:52;;;;;;;0.85;0.50;;;18.90;64.30;;;;;;6188332;23;20079;-69
2022/06/30 12:21:18;;;;;;;1.58;0.43;;;18.90;64.30;;;;;;6214927;23;20027;-69
2022/06/30 12:23:45;;;;;;;1.23;0.30;;;18.90;64.20;;;;;;6163508;23;20007;-69
2022/06/30 12:26:11;;;;;;;1.50;0.40;;;18.90;64.20;;;;;;6163852;23;20392;-70
2022/06/30 12:28:44;;;;;;;3.88;0.63;;;18.90;64.20;;;;;;6188359;23;20001;-70
2022/06/30 12:31:10;;;;;;;0.40;0.30;;;18.90;64.00;;;;;;6188519;23;20080;-70
2022/06/30 12:33:39;;;;;;;1.67;0.40;;;18.90;63.80;;;;;;6188334;23;20434;-70
2022/06/30 12:36:05;;;;;;;1.25;0.50;;;18.90;63.40;;;;;;6188544;23;20008;-70
2022/06/30 12:38:30;;;;;;;2.08;0.40;;;18.80;63.50;;;;;;6187656;23;20021;-70
2022/06/30 12:40:56;;;;;;;1.02;0.30;;;18.70;63.80;;;;;;6188268;23;20035;-70
2022/06/30 12:43:22;;;;;;;1.63;0.60;;;18.70;63.80;;;;;;6214653;23;20028;-70
2022/06/30 12:45:58;;;;;;;2.92;0.80;;;18.70;63.70;;;;;;6188225;23;20396;-70
2022/06/30 12:48:43;;;;;;;0.30;0.30;;;18.70;63.60;;;;;;6214703;23;20031;-70
2022/06/30 12:51:17;;;;;;;0.57;0.20;;;18.80;63.60;;;;;;6188254;23;20001;-70
2022/06/30 12:53:45;;;;;;;0.32;0.30;;;18.80;63.70;;;;;;6163938;23;19996;-70
2022/06/30 12:56:20;;;;;;;0.63;0.30;;;18.80;63.60;;;;;;6214658;23;20008;-70
2022/06/30 12:59:02;;;;;;;0.85;0.30;;;18.80;63.90;;;;;;6189318;23;20008;-70
2022/06/30 13:01:30;;;;;;;1.08;0.40;;;18.80;64.00;;;;;;6188299;23;20341;-70
2022/06/30 13:04:00;;;;;;;1.67;0.32;;;18.80;64.00;;;;;;6165410;23;20447;-70
2022/06/30 13:06:30;;;;;;;0.77;0.30;;;18.80;63.90;;;;;;6216628;23;20023;-70